Catlett, Virginia
Current Conditions -  °F | °C
As of 5:55 PM on Wednesday 22 Oct 2014 (Local Time) from KHWY Reporting Station
Overcast Overcast  
Wind Chill: 56°   Ceiling: 4200
Heat Index: 56°   Visibility: 10mi
Dew Point: 52°   Wind: 15mph
Humidity: 85%   Direction: 320°NW
Pressure: 29.95"   Gusts: 20mph
Location:  38.65°N, 77.64°W
Report Text: KHWY 222155Z AUTO 32013G17KT 10SM OVC042 14/11 A2995 RMK AO2 T01350111
Loading
Personal Weather Stations






























Interactive Weather Map
Tropical Storm Tracking
New forecast layout! Learn more

10-Day Weather Forecast

Advertisements
Track Severe Weather on mobile